sensor_id;sensor_type;location;lat;lon;timestamp;pressure;altitude;pressure_sealevel;temperature;humidity
21821;BME280;11073;48.586;12.066;2023-02-21T00:00:53;96861.19;;;8.05;57.80
21821;BME280;11073;48.586;12.066;2023-02-21T00:04:01;96864.53;;;8.00;57.76
21821;BME280;11073;48.586;12.066;2023-02-21T00:07:09;96857.28;;;7.88;57.82
21821;BME280;11073;48.586;12.066;2023-02-21T00:10:15;96858.34;;;7.80;57.76
21821;BME280;11073;48.586;12.066;2023-02-21T00:13:22;96850.94;;;7.69;57.77
21821;BME280;11073;48.586;12.066;2023-02-21T00:16:28;96851.97;;;7.61;57.79
21821;BME280;11073;48.586;12.066;2023-02-21T00:19:36;96840.16;;;7.62;57.95
21821;BME280;11073;48.586;12.066;2023-02-21T00:22:43;96840.56;;;7.59;57.85
21821;BME280;11073;48.586;12.066;2023-02-21T00:25:50;96837.88;;;7.59;57.78
21821;BME280;11073;48.586;12.066;2023-02-21T00:28:57;96840.38;;;7.54;57.93
21821;BME280;11073;48.586;12.066;2023-02-21T00:32:04;96841.00;;;7.50;57.94
21821;BME280;11073;48.586;12.066;2023-02-21T00:35:12;96814.28;;;7.35;58.02
21821;BME280;11073;48.586;12.066;2023-02-21T00:38:19;96836.66;;;7.42;58.08
21821;BME280;11073;48.586;12.066;2023-02-21T00:41:25;96834.78;;;7.42;58.09
21821;BME280;11073;48.586;12.066;2023-02-21T00:44:32;96836.44;;;7.37;58.16
21821;BME280;11073;48.586;12.066;2023-02-21T00:47:39;96843.31;;;7.33;58.11
21821;BME280;11073;48.586;12.066;2023-02-21T00:50:46;96848.25;;;7.36;58.18
21821;BME280;11073;48.586;12.066;2023-02-21T00:53:53;96845.34;;;7.37;58.04
21821;BME280;11073;48.586;12.066;2023-02-21T00:57:00;96849.69;;;7.38;58.13
21821;BME280;11073;48.586;12.066;2023-02-21T01:00:08;96838.75;;;7.33;57.98
21821;BME280;11073;48.586;12.066;2023-02-21T01:03:19;96833.56;;;7.32;58.07
21821;BME280;11073;48.586;12.066;2023-02-21T01:06:27;96821.97;;;7.25;58.07
21821;BME280;11073;48.586;12.066;2023-02-21T01:09:35;96829.19;;;7.24;57.99
21821;BME280;11073;48.586;12.066;2023-02-21T01:12:41;96832.31;;;7.21;58.19
21821;BME280;11073;48.586;12.066;2023-02-21T01:15:48;96828.19;;;7.18;57.82
21821;BME280;11073;48.586;12.066;2023-02-21T01:18:56;96827.34;;;7.18;58.03
21821;BME280;11073;48.586;12.066;2023-02-21T01:22:04;96832.09;;;7.16;58.05
21821;BME280;11073;48.586;12.066;2023-02-21T01:25:14;96829.41;;;7.16;57.99
21821;BME280;11073;48.586;12.066;2023-02-21T01:28:21;96821.75;;;7.13;57.93
21821;BME280;11073;48.586;12.066;2023-02-21T01:31:27;96807.88;;;7.09;58.00
21821;BME280;11073;48.586;12.066;2023-02-21T01:34:34;96811.00;;;7.13;58.06
21821;BME280;11073;48.586;12.066;2023-02-21T01:37:44;96808.72;;;7.10;57.89
21821;BME280;11073;48.586;12.066;2023-02-21T01:40:52;96808.72;;;7.10;57.87
21821;BME280;11073;48.586;12.066;2023-02-21T01:44:00;96777.63;;;6.94;57.96
21821;BME280;11073;48.586;12.066;2023-02-21T01:47:08;96803.34;;;7.10;58.09
21821;BME280;11073;48.586;12.066;2023-02-21T01:53:26;96791.31;;;7.12;58.11
21821;BME280;11073;48.586;12.066;2023-02-21T01:56:34;96799.19;;;7.14;58.04
21821;BME280;11073;48.586;12.066;2023-02-21T01:59:40;96789.22;;;7.14;57.98
21821;BME280;11073;48.586;12.066;2023-02-21T02:02:52;96790.28;;;7.13;58.20
21821;BME280;11073;48.586;12.066;2023-02-21T02:06:04;96784.88;;;7.13;58.00
21821;BME280;11073;48.586;12.066;2023-02-21T02:09:16;96788.41;;;7.14;57.85
21821;BME280;11073;48.586;12.066;2023-02-21T02:12:44;96795.22;;;7.16;58.13
21821;BME280;11073;48.586;12.066;2023-02-21T02:15:44;96786.53;;;7.14;58.05
21821;BME280;11073;48.586;12.066;2023-02-21T02:19:18;96786.97;;;7.11;58.22
21821;BME280;11073;48.586;12.066;2023-02-21T02:22:45;96786.53;;;7.14;57.92
21821;BME280;11073;48.586;12.066;2023-02-21T02:25:57;96783.84;;;7.14;57.85
21821;BME280;11073;48.586;12.066;2023-02-21T02:29:05;96779.50;;;7.13;57.89
21821;BME280;11073;48.586;12.066;2023-02-21T02:32:26;96786.53;;;7.14;57.87
21821;BME280;11073;48.586;12.066;2023-02-21T02:35:27;96778.47;;;7.14;57.78
21821;BME280;11073;48.586;12.066;2023-02-21T02:38:22;96778.06;;;7.11;57.82
21821;BME280;11073;48.586;12.066;2023-02-21T02:41:23;96773.50;;;7.05;57.83
21821;BME280;11073;48.586;12.066;2023-02-21T02:44:20;96786.31;;;7.09;57.74
21821;BME280;11073;48.586;12.066;2023-02-21T02:47:14;96764.19;;;6.94;57.70
21821;BME280;11073;48.586;12.066;2023-02-21T02:50:07;96775.59;;;6.96;57.64
21821;BME280;11073;48.586;12.066;2023-02-21T02:53:01;96771.66;;;6.92;57.72
21821;BME280;11073;48.586;12.066;2023-02-21T02:55:55;96770.81;;;6.91;57.63
21821;BME280;11073;48.586;12.066;2023-02-21T02:58:49;96769.38;;;6.89;57.67
21821;BME280;11073;48.586;12.066;2023-02-21T03:01:58;96764.59;;;6.84;57.63
21821;BME280;11073;48.586;12.066;2023-02-21T03:05:06;96763.16;;;6.82;57.63
21821;BME280;11073;48.586;12.066;2023-02-21T03:08:08;96772.47;;;6.79;57.60
21821;BME280;11073;48.586;12.066;2023-02-21T03:11:08;96763.16;;;6.75;57.65
21821;BME280;11073;48.586;12.066;2023-02-21T03:14:05;96765.44;;;6.72;57.60
21821;BME280;11073;48.586;12.066;2023-02-21T03:17:00;96772.28;;;6.74;57.69
21821;BME280;11073;48.586;12.066;2023-02-21T03:19:52;96772.47;;;6.73;57.76
21821;BME280;11073;48.586;12.066;2023-02-21T03:22:43;96766.25;;;6.72;57.60
21821;BME280;11073;48.586;12.066;2023-02-21T03:25:36;96776.41;;;6.77;57.75
21821;BME280;11073;48.586;12.066;2023-02-21T03:28:29;96767.94;;;6.67;58.01
21821;BME280;11073;48.586;12.066;2023-02-21T03:31:23;96771.84;;;6.77;57.96
21821;BME280;11073;48.586;12.066;2023-02-21T03:34:14;96762.53;;;6.73;57.95
21821;BME280;11073;48.586;12.066;2023-02-21T03:37:03;96767.50;;;6.70;58.27
21821;BME280;11073;48.586;12.066;2023-02-21T03:39:52;96774.53;;;6.71;58.34
21821;BME280;11073;48.586;12.066;2023-02-21T03:42:43;96771.03;;;6.70;58.44
21821;BME280;11073;48.586;12.066;2023-02-21T03:45:35;96777.44;;;6.69;58.53
21821;BME280;11073;48.586;12.066;2023-02-21T03:48:28;96770.81;;;6.65;58.62
21821;BME280;11073;48.586;12.066;2023-02-21T03:51:33;96772.66;;;6.64;58.61
21821;BME280;11073;48.586;12.066;2023-02-21T03:54:22;96772.88;;;6.63;58.78
21821;BME280;11073;48.586;12.066;2023-02-21T03:57:15;96784.88;;;6.60;58.83
21821;BME280;11073;48.586;12.066;2023-02-21T04:00:09;96773.31;;;6.60;58.81
21821;BME280;11073;48.586;12.066;2023-02-21T04:03:01;96761.50;;;6.54;59.01
21821;BME280;11073;48.586;12.066;2023-02-21T04:05:56;96777.00;;;6.59;58.97
21821;BME280;11073;48.586;12.066;2023-02-21T04:08:47;96775.53;;;6.50;59.02
21821;BME280;11073;48.586;12.066;2023-02-21T04:11:42;96772.47;;;6.53;59.19
21821;BME280;11073;48.586;12.066;2023-02-21T04:14:31;96774.72;;;6.56;59.32
21821;BME280;11073;48.586;12.066;2023-02-21T04:17:22;96768.53;;;6.55;59.25
21821;BME280;11073;48.586;12.066;2023-02-21T04:20:13;96763.56;;;6.52;59.20
21821;BME280;11073;48.586;12.066;2023-02-21T04:23:07;96766.44;;;6.51;59.05
21821;BME280;11073;48.586;12.066;2023-02-21T04:25:57;96767.28;;;6.45;59.11
21821;BME280;11073;48.586;12.066;2023-02-21T04:28:54;96764.75;;;6.36;59.25
21821;BME280;11073;48.586;12.066;2023-02-21T04:31:44;96768.91;;;6.32;59.25
21821;BME280;11073;48.586;12.066;2023-02-21T04:34:37;96763.09;;;6.29;59.43
21821;BME280;11073;48.586;12.066;2023-02-21T04:37:26;96776.34;;;6.37;59.60
21821;BME280;11073;48.586;12.066;2023-02-21T04:40:17;96775.13;;;6.40;59.51
21821;BME280;11073;48.586;12.066;2023-02-21T04:43:06;96766.22;;;6.32;59.53
21821;BME280;11073;48.586;12.066;2023-02-21T04:45:56;96772.66;;;6.38;59.66
21821;BME280;11073;48.586;12.066;2023-02-21T04:48:48;96770.97;;;6.37;59.41
21821;BME280;11073;48.586;12.066;2023-02-21T04:51:39;96771.81;;;6.38;59.63
21821;BME280;11073;48.586;12.066;2023-02-21T04:54:28;96765.38;;;6.32;59.49
21821;BME280;11073;48.586;12.066;2023-02-21T04:57:17;96764.31;;;6.20;59.63
21821;BME280;11073;48.586;12.066;2023-02-21T05:00:08;96757.47;;;6.11;59.76
21821;BME280;11073;48.586;12.066;2023-02-21T05:02:58;96761.38;;;6.08;59.82
21821;BME280;11073;48.586;12.066;2023-02-21T05:05:47;96757.88;;;6.07;59.99
21821;BME280;11073;48.586;12.066;2023-02-21T05:08:37;96759.09;;;6.05;60.10
21821;BME280;11073;48.586;12.066;2023-02-21T05:11:27;96759.69;;;6.00;60.17
21821;BME280;11073;48.586;12.066;2023-02-21T05:14:16;96754.53;;;5.99;60.21
21821;BME280;11073;48.586;12.066;2023-02-21T05:17:06;96754.75;;;5.97;60.24
21821;BME280;11073;48.586;12.066;2023-02-21T05:19:55;96748.53;;;5.97;60.35
21821;BME280;11073;48.586;12.066;2023-02-21T05:22:44;96756.16;;;5.93;60.44
21821;BME280;11073;48.586;12.066;2023-02-21T05:25:34;96746.59;;;5.84;60.45
21821;BME280;11073;48.586;12.066;2023-02-21T05:28:23;96760.66;;;5.79;60.30
21821;BME280;11073;48.586;12.066;2023-02-21T05:31:13;96762.91;;;5.76;60.52
21821;BME280;11073;48.586;12.066;2023-02-21T05:34:03;96758.97;;;5.78;60.67
21821;BME280;11073;48.586;12.066;2023-02-21T05:36:52;96763.09;;;5.74;60.66
21821;BME280;11073;48.586;12.066;2023-02-21T05:39:41;96754.59;;;5.71;60.75
21821;BME280;11073;48.586;12.066;2023-02-21T05:42:32;96766.00;;;5.73;60.94
21821;BME280;11073;48.586;12.066;2023-02-21T05:45:21;96775.06;;;5.72;60.89
21821;BME280;11073;48.586;12.066;2023-02-21T05:48:11;96769.84;;;5.64;60.98
21821;BME280;11073;48.586;12.066;2023-02-21T05:50:59;96780.63;;;5.70;61.03
21821;BME280;11073;48.586;12.066;2023-02-21T05:53:48;96782.25;;;5.65;60.99
21821;BME280;11073;48.586;12.066;2023-02-21T05:56:38;96772.13;;;5.60;61.01
21821;BME280;11073;48.586;12.066;2023-02-21T05:59:29;96746.59;;;5.36;61.06
21821;BME280;11073;48.586;12.066;2023-02-21T06:02:17;96781.16;;;5.46;61.09
21821;BME280;11073;48.586;12.066;2023-02-21T06:05:07;96787.50;;;5.38;61.34
21821;BME280;11073;48.586;12.066;2023-02-21T06:07:55;96785.66;;;5.39;61.29
21821;BME280;11073;48.586;12.066;2023-02-21T06:10:44;96781.88;;;5.33;61.27
21821;BME280;11073;48.586;12.066;2023-02-21T06:13:36;96787.00;;;5.21;61.42
21821;BME280;11073;48.586;12.066;2023-02-21T06:16:26;96786.13;;;5.21;61.48
21821;BME280;11073;48.586;12.066;2023-02-21T06:19:16;96788.19;;;5.19;61.67
21821;BME280;11073;48.586;12.066;2023-02-21T06:22:05;96790.63;;;5.14;61.67
21821;BME280;11073;48.586;12.066;2023-02-21T06:24:55;96789.19;;;5.11;61.82
21821;BME280;11073;48.586;12.066;2023-02-21T06:27:44;96788.59;;;5.16;61.93
21821;BME280;11073;48.586;12.066;2023-02-21T06:30:32;96796.06;;;5.20;62.09
21821;BME280;11073;48.586;12.066;2023-02-21T06:33:23;96775.59;;;5.19;62.08
21821;BME280;11073;48.586;12.066;2023-02-21T06:36:14;96792.59;;;5.26;62.14
21821;BME280;11073;48.586;12.066;2023-02-21T06:39:04;96798.56;;;5.29;62.09
21821;BME280;11073;48.586;12.066;2023-02-21T06:41:55;96792.00;;;5.31;62.09
21821;BME280;11073;48.586;12.066;2023-02-21T06:44:44;96797.41;;;5.38;62.13
21821;BME280;11073;48.586;12.066;2023-02-21T06:47:33;96782.72;;;5.34;61.97
21821;BME280;11073;48.586;12.066;2023-02-21T06:50:24;96792.22;;;5.30;62.13
21821;BME280;11073;48.586;12.066;2023-02-21T06:53:13;96787.00;;;5.28;62.21
21821;BME280;11073;48.586;12.066;2023-02-21T06:56:03;96796.16;;;5.34;62.30
21821;BME280;11073;48.586;12.066;2023-02-21T06:58:53;96799.66;;;5.34;62.17
21821;BME280;11073;48.586;12.066;2023-02-21T07:01:42;96818.69;;;5.39;62.32
21821;BME280;11073;48.586;12.066;2023-02-21T07:04:32;96809.41;;;5.42;62.32
21821;BME280;11073;48.586;12.066;2023-02-21T07:07:23;96821.38;;;5.39;62.40
21821;BME280;11073;48.586;12.066;2023-02-21T07:10:12;96818.13;;;5.44;62.63
21821;BME280;11073;48.586;12.066;2023-02-21T07:13:01;96823.53;;;5.50;62.63
21821;BME280;11073;48.586;12.066;2023-02-21T07:15:50;96831.81;;;5.56;62.71
21821;BME280;11073;48.586;12.066;2023-02-21T07:18:39;96834.28;;;5.57;62.81
21821;BME280;11073;48.586;12.066;2023-02-21T07:21:28;96835.78;;;5.60;62.72
21821;BME280;11073;48.586;12.066;2023-02-21T07:24:19;96832.84;;;5.54;62.56
21821;BME280;11073;48.586;12.066;2023-02-21T07:27:08;96838.84;;;5.57;62.54
21821;BME280;11073;48.586;12.066;2023-02-21T07:29:57;96830.16;;;5.54;62.63
21821;BME280;11073;48.586;12.066;2023-02-21T07:32:46;96836.97;;;5.50;62.57
21821;BME280;11073;48.586;12.066;2023-02-21T07:35:35;96839.41;;;5.45;62.70
21821;BME280;11073;48.586;12.066;2023-02-21T07:38:26;96840.03;;;5.47;62.79
21821;BME280;11073;48.586;12.066;2023-02-21T07:41:18;96828.50;;;5.53;62.90
21821;BME280;11073;48.586;12.066;2023-02-21T07:44:08;96840.78;;;5.69;63.08
21821;BME280;11073;48.586;12.066;2023-02-21T07:46:57;96844.13;;;5.78;63.02
21821;BME280;11073;48.586;12.066;2023-02-21T07:49:46;96840.84;;;5.82;63.06
21821;BME280;11073;48.586;12.066;2023-02-21T07:52:36;96840.06;;;5.89;63.09
21821;BME280;11073;48.586;12.066;2023-02-21T07:55:25;96843.44;;;5.97;63.28
21821;BME280;11073;48.586;12.066;2023-02-21T07:58:15;96838.91;;;6.04;63.07
21821;BME280;11073;48.586;12.066;2023-02-21T08:01:08;96834.59;;;6.10;63.06
21821;BME280;11073;48.586;12.066;2023-02-21T08:03:57;96831.75;;;6.18;62.81
21821;BME280;11073;48.586;12.066;2023-02-21T08:06:46;96837.94;;;6.19;62.97
21821;BME280;11073;48.586;12.066;2023-02-21T08:09:36;96836.09;;;6.19;63.04
21821;BME280;11073;48.586;12.066;2023-02-21T08:12:24;96812.88;;;6.05;62.95
21821;BME280;11073;48.586;12.066;2023-02-21T08:15:15;96832.19;;;6.35;62.87
21821;BME280;11073;48.586;12.066;2023-02-21T08:18:04;96844.88;;;6.54;62.85
21821;BME280;11073;48.586;12.066;2023-02-21T08:20:54;96846.97;;;6.66;62.68
21821;BME280;11073;48.586;12.066;2023-02-21T08:23:43;96842.25;;;6.81;62.35
21821;BME280;11073;48.586;12.066;2023-02-21T08:26:32;96849.94;;;6.97;62.45
21821;BME280;11073;48.586;12.066;2023-02-21T08:29:21;96845.16;;;7.12;62.36
21821;BME280;11073;48.586;12.066;2023-02-21T08:32:12;96850.97;;;7.29;62.11
21821;BME280;11073;48.586;12.066;2023-02-21T08:35:02;96853.84;;;7.47;62.12
21821;BME280;11073;48.586;12.066;2023-02-21T08:37:52;96844.69;;;7.75;62.10
21821;BME280;11073;48.586;12.066;2023-02-21T08:40:43;96853.75;;;8.00;61.92
21821;BME280;11073;48.586;12.066;2023-02-21T08:43:33;96861.75;;;8.27;61.69
21821;BME280;11073;48.586;12.066;2023-02-21T08:46:22;96851.09;;;8.45;61.60
21821;BME280;11073;48.586;12.066;2023-02-21T08:49:13;96856.63;;;8.64;61.27
21821;BME280;11073;48.586;12.066;2023-02-21T08:52:01;96863.19;;;8.74;61.15
21821;BME280;11073;48.586;12.066;2023-02-21T08:54:51;96862.47;;;8.92;61.01
21821;BME280;11073;48.586;12.066;2023-02-21T08:57:40;96859.00;;;9.10;60.96
21821;BME280;11073;48.586;12.066;2023-02-21T09:00:29;96858.09;;;9.23;60.60
21821;BME280;11073;48.586;12.066;2023-02-21T09:03:19;96860.28;;;9.32;60.26
21821;BME280;11073;48.586;12.066;2023-02-21T09:06:10;96858.38;;;9.39;60.13
21821;BME280;11073;48.586;12.066;2023-02-21T09:08:59;96865.59;;;9.46;59.63
21821;BME280;11073;48.586;12.066;2023-02-21T09:11:48;96866.81;;;9.50;59.60
21821;BME280;11073;48.586;12.066;2023-02-21T09:14:39;96859.06;;;9.53;59.57
21821;BME280;11073;48.586;12.066;2023-02-21T09:17:29;96866.78;;;9.75;59.35
21821;BME280;11073;48.586;12.066;2023-02-21T09:20:22;96868.31;;;9.89;59.05
21821;BME280;11073;48.586;12.066;2023-02-21T09:23:13;96870.34;;;9.93;58.89
21821;BME280;11073;48.586;12.066;2023-02-21T09:26:04;96857.41;;;9.95;58.43
21821;BME280;11073;48.586;12.066;2023-02-21T09:28:54;96872.91;;;10.07;58.40
21821;BME280;11073;48.586;12.066;2023-02-21T09:31:43;96869.91;;;10.15;58.04
21821;BME280;11073;48.586;12.066;2023-02-21T09:34:33;96864.88;;;10.18;58.01
21821;BME280;11073;48.586;12.066;2023-02-21T09:37:22;96869.56;;;10.30;57.54
21821;BME280;11073;48.586;12.066;2023-02-21T09:40:20;96863.16;;;10.42;57.20
21821;BME280;11073;48.586;12.066;2023-02-21T09:43:14;96866.25;;;10.46;57.31
21821;BME280;11073;48.586;12.066;2023-02-21T09:46:08;96864.72;;;10.50;56.92
21821;BME280;11073;48.586;12.066;2023-02-21T09:49:00;96856.38;;;10.52;56.90
21821;BME280;11073;48.586;12.066;2023-02-21T09:51:51;96863.59;;;10.58;56.75
21821;BME280;11073;48.586;12.066;2023-02-21T09:54:44;96857.63;;;10.67;56.83
21821;BME280;11073;48.586;12.066;2023-02-21T09:57:36;96866.03;;;10.77;56.50
21821;BME280;11073;48.586;12.066;2023-02-21T10:00:32;96861.09;;;10.86;56.63
21821;BME280;11073;48.586;12.066;2023-02-21T10:03:43;96862.38;;;11.02;56.48
21821;BME280;11073;48.586;12.066;2023-02-21T10:06:42;96866.38;;;11.11;56.21
21821;BME280;11073;48.586;12.066;2023-02-21T10:09:41;96862.50;;;11.19;56.06
21821;BME280;11073;48.586;12.066;2023-02-21T10:12:35;96866.03;;;11.19;56.30
21821;BME280;11073;48.586;12.066;2023-02-21T10:15:38;96862.03;;;11.22;56.02
21821;BME280;11073;48.586;12.066;2023-02-21T10:18:34;96871.50;;;11.31;56.19
21821;BME280;11073;48.586;12.066;2023-02-21T10:21:28;96870.81;;;11.47;55.98
21821;BME280;11073;48.586;12.066;2023-02-21T10:24:20;96863.41;;;11.66;55.80
21821;BME280;11073;48.586;12.066;2023-02-21T10:27:14;96869.34;;;11.86;55.58
21821;BME280;11073;48.586;12.066;2023-02-21T10:30:07;96865.00;;;12.49;55.69
21821;BME280;11073;48.586;12.066;2023-02-21T10:32:59;96876.63;;;13.02;55.26
21821;BME280;11073;48.586;12.066;2023-02-21T10:35:53;96875.97;;;13.40;54.73
21821;BME280;11073;48.586;12.066;2023-02-21T10:38:55;96872.44;;;13.73;53.95
21821;BME280;11073;48.586;12.066;2023-02-21T10:41:47;96863.09;;;14.02;53.41
21821;BME280;11073;48.586;12.066;2023-02-21T10:44:37;96861.94;;;14.37;52.73
21821;BME280;11073;48.586;12.066;2023-02-21T10:47:32;96873.06;;;14.52;52.28
21821;BME280;11073;48.586;12.066;2023-02-21T10:50:48;96869.31;;;14.80;51.94
21821;BME280;11073;48.586;12.066;2023-02-21T10:53:39;96884.00;;;15.01;51.43
21821;BME280;11073;48.586;12.066;2023-02-21T10:56:29;96876.91;;;15.27;51.11
21821;BME280;11073;48.586;12.066;2023-02-21T10:59:20;96878.50;;;15.50;50.66
21821;BME280;11073;48.586;12.066;2023-02-21T11:02:31;96874.81;;;15.61;50.11
21821;BME280;11073;48.586;12.066;2023-02-21T11:05:22;96861.97;;;15.94;49.70
21821;BME280;11073;48.586;12.066;2023-02-21T11:08:12;96870.28;;;16.14;49.21
21821;BME280;11073;48.586;12.066;2023-02-21T11:11:03;96858.16;;;16.00;48.88
21821;BME280;11073;48.586;12.066;2023-02-21T11:14:06;96864.75;;;16.04;48.60
21821;BME280;11073;48.586;12.066;2023-02-21T11:17:20;96854.63;;;16.47;48.34
21821;BME280;11073;48.586;12.066;2023-02-21T11:20:16;96850.69;;;16.75;47.96
21821;BME280;11073;48.586;12.066;2023-02-21T11:23:20;96846.09;;;16.96;47.37
21821;BME280;11073;48.586;12.066;2023-02-21T11:26:11;96839.31;;;17.29;46.80
21821;BME280;11073;48.586;12.066;2023-02-21T11:29:07;96824.28;;;17.42;46.38
21821;BME280;11073;48.586;12.066;2023-02-21T11:31:58;96836.34;;;17.61;46.09
21821;BME280;11073;48.586;12.066;2023-02-21T11:34:48;96825.66;;;17.44;45.75
21821;BME280;11073;48.586;12.066;2023-02-21T11:37:47;96808.94;;;17.15;45.19
21821;BME280;11073;48.586;12.066;2023-02-21T11:40:43;96823.13;;;17.02;45.28
21821;BME280;11073;48.586;12.066;2023-02-21T11:43:34;96814.03;;;16.76;45.28
21821;BME280;11073;48.586;12.066;2023-02-21T11:46:35;96795.47;;;16.93;45.16
21821;BME280;11073;48.586;12.066;2023-02-21T11:49:35;96798.81;;;17.21;44.89
21821;BME280;11073;48.586;12.066;2023-02-21T11:52:30;96798.00;;;17.10;44.79
21821;BME280;11073;48.586;12.066;2023-02-21T11:55:24;96787.31;;;16.98;44.73
21821;BME280;11073;48.586;12.066;2023-02-21T11:58:20;96784.53;;;16.93;44.63
21821;BME280;11073;48.586;12.066;2023-02-21T12:01:15;96781.28;;;16.91;44.84
21821;BME280;11073;48.586;12.066;2023-02-21T12:04:20;96779.09;;;17.08;44.59
21821;BME280;11073;48.586;12.066;2023-02-21T12:07:15;96757.25;;;17.19;44.55
21821;BME280;11073;48.586;12.066;2023-02-21T12:10:23;96763.81;;;17.28;44.31
21821;BME280;11073;48.586;12.066;2023-02-21T12:13:24;96749.56;;;17.31;44.37
21821;BME280;11073;48.586;12.066;2023-02-21T12:16:26;96751.78;;;17.34;44.41
21821;BME280;11073;48.586;12.066;2023-02-21T12:19:33;96750.66;;;17.71;44.31
21821;BME280;11073;48.586;12.066;2023-02-21T12:22:39;96750.38;;;17.77;44.05
21821;BME280;11073;48.586;12.066;2023-02-21T12:25:42;96738.63;;;17.82;44.09
21821;BME280;11073;48.586;12.066;2023-02-21T12:28:46;96740.97;;;18.14;43.28
21821;BME280;11073;48.586;12.066;2023-02-21T12:31:51;96738.38;;;18.48;43.36
21821;BME280;11073;48.586;12.066;2023-02-21T12:35:02;96737.63;;;18.87;42.71
21821;BME280;11073;48.586;12.066;2023-02-21T12:37:56;96730.75;;;19.28;42.39
21821;BME280;11073;48.586;12.066;2023-02-21T12:40:57;96727.00;;;19.48;41.33
21821;BME280;11073;48.586;12.066;2023-02-21T12:43:57;96722.22;;;19.64;40.96
21821;BME280;11073;48.586;12.066;2023-02-21T12:46:53;96720.66;;;20.06;40.58
21821;BME280;11073;48.586;12.066;2023-02-21T12:49:50;96704.97;;;20.30;40.33
21821;BME280;11073;48.586;12.066;2023-02-21T12:52:48;96703.13;;;20.50;39.79
21821;BME280;11073;48.586;12.066;2023-02-21T12:55:45;96702.22;;;20.73;39.09
21821;BME280;11073;48.586;12.066;2023-02-21T12:58:39;96698.94;;;20.90;39.14
21821;BME280;11073;48.586;12.066;2023-02-21T13:01:33;96685.75;;;21.06;38.61
21821;BME280;11073;48.586;12.066;2023-02-21T13:04:32;96681.25;;;21.15;38.19
21821;BME280;11073;48.586;12.066;2023-02-21T13:07:28;96675.84;;;21.24;37.93
21821;BME280;11073;48.586;12.066;2023-02-21T13:10:24;96677.25;;;21.21;37.73
21821;BME280;11073;48.586;12.066;2023-02-21T13:13:18;96674.06;;;21.14;37.21
21821;BME280;11073;48.586;12.066;2023-02-21T13:16:12;96669.81;;;21.21;36.83
21821;BME280;11073;48.586;12.066;2023-02-21T13:19:06;96664.53;;;21.44;36.81
21821;BME280;11073;48.586;12.066;2023-02-21T13:22:07;96656.09;;;21.68;36.80
21821;BME280;11073;48.586;12.066;2023-02-21T13:25:23;96650.06;;;21.80;36.31
21821;BME280;11073;48.586;12.066;2023-02-21T13:28:18;96644.28;;;21.81;35.96
21821;BME280;11073;48.586;12.066;2023-02-21T13:31:18;96633.44;;;21.85;35.57
21821;BME280;11073;48.586;12.066;2023-02-21T13:34:12;96639.47;;;22.14;35.42
21821;BME280;11073;48.586;12.066;2023-02-21T13:37:13;96627.00;;;22.30;35.35
21821;BME280;11073;48.586;12.066;2023-02-21T13:40:11;96628.22;;;22.38;35.00
21821;BME280;11073;48.586;12.066;2023-02-21T13:43:09;96634.28;;;22.63;34.58
21821;BME280;11073;48.586;12.066;2023-02-21T13:46:22;96641.91;;;22.29;34.24
21821;BME280;11073;48.586;12.066;2023-02-21T13:49:42;96631.50;;;21.99;34.16
21821;BME280;11073;48.586;12.066;2023-02-21T13:52:50;96624.94;;;22.36;33.99
21821;BME280;11073;48.586;12.066;2023-02-21T13:59:31;96613.69;;;22.46;33.09
21821;BME280;11073;48.586;12.066;2023-02-21T14:02:26;96621.47;;;22.30;33.28
21821;BME280;11073;48.586;12.066;2023-02-21T14:05:17;96622.75;;;22.61;33.36
21821;BME280;11073;48.586;12.066;2023-02-21T14:08:07;96621.44;;;22.80;33.15
21821;BME280;11073;48.586;12.066;2023-02-21T14:11:12;96610.22;;;22.77;32.90
21821;BME280;11073;48.586;12.066;2023-02-21T14:14:04;96606.44;;;22.73;32.82
21821;BME280;11073;48.586;12.066;2023-02-21T14:17:09;96605.00;;;22.89;32.57
21821;BME280;11073;48.586;12.066;2023-02-21T14:19:59;96603.16;;;23.07;32.61
21821;BME280;11073;48.586;12.066;2023-02-21T14:22:49;96600.94;;;23.40;32.47
21821;BME280;11073;48.586;12.066;2023-02-21T14:25:41;96598.16;;;23.71;32.37
21821;BME280;11073;48.586;12.066;2023-02-21T14:29:00;96592.97;;;23.70;32.01
21821;BME280;11073;48.586;12.066;2023-02-21T14:35:23;96589.31;;;23.91;32.03
21821;BME280;11073;48.586;12.066;2023-02-21T14:38:17;96592.06;;;23.91;31.83
21821;BME280;11073;48.586;12.066;2023-02-21T14:41:22;96588.63;;;23.86;31.58
21821;BME280;11073;48.586;12.066;2023-02-21T14:44:24;96584.03;;;23.73;31.64
21821;BME280;11073;48.586;12.066;2023-02-21T14:47:32;96583.53;;;23.71;31.42
21821;BME280;11073;48.586;12.066;2023-02-21T14:50:33;96576.03;;;23.62;31.44
21821;BME280;11073;48.586;12.066;2023-02-21T14:53:49;96575.75;;;23.42;31.29
21821;BME280;11073;48.586;12.066;2023-02-21T14:57:13;96575.00;;;23.58;31.35
21821;BME280;11073;48.586;12.066;2023-02-21T15:00:17;96569.91;;;23.83;31.58
21821;BME280;11073;48.586;12.066;2023-02-21T15:03:12;96563.44;;;23.96;31.52
21821;BME280;11073;48.586;12.066;2023-02-21T15:06:06;96560.34;;;23.89;31.38
21821;BME280;11073;48.586;12.066;2023-02-21T15:09:10;96555.44;;;23.77;31.37
21821;BME280;11073;48.586;12.066;2023-02-21T15:12:00;96554.94;;;23.75;31.04
21821;BME280;11073;48.586;12.066;2023-02-21T15:14:51;96548.13;;;23.81;31.35
21821;BME280;11073;48.586;12.066;2023-02-21T15:17:40;96540.28;;;23.66;31.39
21821;BME280;11073;48.586;12.066;2023-02-21T15:20:30;96541.44;;;23.74;31.42
21821;BME280;11073;48.586;12.066;2023-02-21T15:23:21;96547.88;;;23.60;31.54
21821;BME280;11073;48.586;12.066;2023-02-21T15:26:18;96537.47;;;23.57;31.34
21821;BME280;11073;48.586;12.066;2023-02-21T15:29:10;96533.13;;;23.25;31.37
21821;BME280;11073;48.586;12.066;2023-02-21T15:32:00;96535.09;;;23.02;31.64
21821;BME280;11073;48.586;12.066;2023-02-21T15:34:52;96532.28;;;22.94;31.92
21821;BME280;11073;48.586;12.066;2023-02-21T15:37:42;96530.06;;;22.82;31.96